Time;durP1;ratioP1;P1;durP2;ratioP2;P2;SDS_P1;SDS_P2;PMS_P1;PMS_P2;Temp;Humidity;BMP_temperature;BMP_pressure;BME280_temperature;BME280_humidity;BME280_pressure;Samples;Min_cycle;Max_cycle;Signal;HPM_P1;HPM_P2
2021/12/13 00:00:39;;;;;;;37.55;27.10;;;11.60;99.90;;;;;;2072104;28;20018;-71
2021/12/13 00:02:03;;;;;;;34.53;27.63;;;11.60;99.90;;;;;;2071845;28;20478;-72
2021/12/13 00:03:22;;;;;;;36.22;27.50;;;11.60;99.90;;;;;;2071457;28;20042;-72
2021/12/13 00:04:34;;;;;;;33.03;26.75;;;11.60;99.90;;;;;;2071798;28;20533;-72
2021/12/13 00:05:40;;;;;;;34.17;26.75;;;11.60;99.90;;;;;;2070988;28;20084;-72
2021/12/13 00:06:56;;;;;;;33.05;27.45;;;11.60;99.90;;;;;;2068369;28;20061;-71
2021/12/13 00:08:04;;;;;;;28.63;25.48;;;11.60;99.90;;;;;;2071948;28;20492;-71
2021/12/13 00:09:14;;;;;;;35.92;27.73;;;11.60;99.90;;;;;;2071970;28;20773;-72
2021/12/13 00:10:19;;;;;;;32.30;25.73;;;11.60;99.90;;;;;;2069365;28;20030;-72
2021/12/13 00:11:31;;;;;;;28.80;25.70;;;11.60;99.90;;;;;;2070983;28;20033;-72
2021/12/13 00:12:43;;;;;;;28.05;24.75;;;11.60;99.90;;;;;;2066502;28;20525;-72
2021/12/13 00:13:49;;;;;;;29.42;24.63;;;11.60;99.90;;;;;;2071132;28;20536;-72
2021/12/13 00:14:53;;;;;;;31.42;25.95;;;11.60;99.90;;;;;;2072051;28;20029;-72
2021/12/13 00:15:58;;;;;;;27.50;24.52;;;11.60;99.90;;;;;;2071569;28;20055;-72
2021/12/13 00:17:07;;;;;;;29.55;24.33;;;11.60;99.90;;;;;;2071584;28;20080;-72
2021/12/13 00:18:16;;;;;;;26.67;23.80;;;11.60;99.90;;;;;;2071774;28;20022;-71
2021/12/13 00:19:23;;;;;;;26.92;24.00;;;11.60;99.90;;;;;;2071948;28;20393;-72
2021/12/13 00:20:46;;;;;;;27.73;24.25;;;11.60;99.90;;;;;;2071839;28;20037;-72
2021/12/13 00:21:57;;;;;;;26.70;23.00;;;11.60;99.90;;;;;;2071682;28;20493;-71
2021/12/13 00:23:15;;;;;;;28.10;23.75;;;11.60;99.90;;;;;;2072014;28;20493;-71
2021/12/13 00:24:27;;;;;;;32.50;23.98;;;11.60;99.90;;;;;;2071394;28;20037;-71
2021/12/13 00:25:29;;;;;;;29.80;22.83;;;11.60;99.90;;;;;;2071974;28;20018;-71
2021/12/13 00:26:34;;;;;;;31.45;24.05;;;11.60;99.90;;;;;;2071275;28;20036;-72
2021/12/13 00:27:41;;;;;;;27.73;23.55;;;11.60;99.90;;;;;;2071848;28;20109;-72
2021/12/13 00:28:43;;;;;;;27.73;23.42;;;11.60;99.90;;;;;;2071635;28;20386;-72
2021/12/13 00:30:08;;;;;;;25.27;22.58;;;11.60;99.90;;;;;;2071618;28;20438;-72
2021/12/13 00:31:57;;;;;;;27.20;22.98;;;11.60;99.90;;;;;;2071648;28;20058;-72
2021/12/13 00:33:31;;;;;;;25.75;21.63;;;11.60;99.90;;;;;;2071187;28;20555;-72
2021/12/13 00:34:49;;;;;;;24.80;21.52;;;11.50;99.90;;;;;;2070382;28;20030;-72
2021/12/13 00:36:09;;;;;;;26.92;21.75;;;11.50;99.90;;;;;;2071051;28;20534;-72
2021/12/13 00:37:18;;;;;;;25.90;21.85;;;11.50;99.90;;;;;;2071990;28;20018;-72
2021/12/13 00:38:21;;;;;;;27.10;21.48;;;11.50;99.90;;;;;;2071002;28;20105;-72
2021/12/13 00:39:30;;;;;;;24.65;21.65;;;11.60;99.90;;;;;;2070979;28;20177;-71
2021/12/13 00:40:34;;;;;;;23.58;21.10;;;11.60;99.90;;;;;;2072114;28;20043;-72
2021/12/13 00:41:36;;;;;;;23.40;20.75;;;11.60;99.90;;;;;;2071461;28;20151;-72
2021/12/13 00:42:49;;;;;;;23.25;20.85;;;11.60;99.90;;;;;;2071618;28;20034;-72
2021/12/13 00:43:58;;;;;;;22.13;19.92;;;11.60;99.90;;;;;;2071028;28;20057;-72
2021/12/13 00:45:07;;;;;;;21.60;19.20;;;11.60;99.90;;;;;;2063559;28;20038;-72
2021/12/13 00:46:13;;;;;;;21.67;19.58;;;11.60;99.90;;;;;;2068066;28;20038;-72
2021/12/13 00:47:29;;;;;;;23.55;21.08;;;11.60;99.90;;;;;;2071428;28;20113;-72
2021/12/13 00:48:33;;;;;;;23.35;19.60;;;11.60;99.90;;;;;;2070942;28;20132;-71
2021/12/13 00:49:38;;;;;;;22.42;19.73;;;11.60;99.90;;;;;;2071344;28;20022;-72
2021/12/13 00:50:41;;;;;;;22.38;20.08;;;11.60;99.90;;;;;;2071813;28;20018;-72
2021/12/13 00:51:47;;;;;;;22.58;20.17;;;11.60;99.90;;;;;;2071580;28;20024;-72
2021/12/13 00:52:49;;;;;;;22.17;19.38;;;11.60;99.90;;;;;;2071702;28;20856;-71
2021/12/13 00:53:52;;;;;;;21.70;19.40;;;11.60;99.90;;;;;;2070350;28;20030;-72
2021/12/13 00:54:53;;;;;;;22.15;19.85;;;11.60;99.90;;;;;;2070819;28;20629;-72
2021/12/13 00:55:54;;;;;;;23.33;20.95;;;11.60;99.90;;;;;;2071148;28;20481;-72
2021/12/13 00:57:24;;;;;;;20.17;18.00;;;11.60;99.90;;;;;;2078938;28;20425;-72
2021/12/13 00:58:25;;;;;;;20.65;18.38;;;11.70;99.90;;;;;;2067329;28;20052;-72
2021/12/13 00:59:40;;;;;;;20.27;18.33;;;11.60;99.90;;;;;;2071487;28;20033;-72
2021/12/13 01:00:46;;;;;;;20.85;18.15;;;11.60;99.90;;;;;;2071697;28;20014;-72
2021/12/13 01:02:05;;;;;;;20.95;18.80;;;11.60;99.90;;;;;;2070878;28;21027;-72
2021/12/13 01:03:35;;;;;;;21.17;19.00;;;11.60;99.90;;;;;;2070830;28;20367;-72
2021/12/13 01:04:57;;;;;;;19.30;17.42;;;11.60;99.90;;;;;;2070979;28;20104;-72
2021/12/13 01:06:10;;;;;;;20.10;18.15;;;11.60;99.90;;;;;;2071452;28;20378;-72
2021/12/13 01:07:32;;;;;;;20.95;18.70;;;11.50;99.90;;;;;;2071447;28;20100;-72
2021/12/13 01:09:20;;;;;;;19.70;17.50;;;11.50;99.90;;;;;;2071707;28;20026;-72
2021/12/13 01:10:55;;;;;;;20.15;18.15;;;11.50;99.90;;;;;;2062089;28;20108;-72
2021/12/13 01:12:03;;;;;;;20.50;18.48;;;11.50;99.90;;;;;;2068836;28;20112;-72
2021/12/13 01:13:12;;;;;;;20.95;18.90;;;11.50;99.90;;;;;;2071216;28;20021;-72
2021/12/13 01:14:24;;;;;;;20.63;17.92;;;11.50;99.90;;;;;;2070937;28;20026;-72
2021/12/13 01:15:35;;;;;;;19.83;17.77;;;11.50;99.90;;;;;;2071221;28;20022;-72
2021/12/13 01:16:52;;;;;;;21.55;19.45;;;11.50;99.90;;;;;;2071090;28;20135;-71
2021/12/13 01:20:19;;;;;;;21.85;19.58;;;11.50;99.90;;;;;;2071886;28;20394;-72
2021/12/13 01:21:31;;;;;;;22.73;19.23;;;11.50;99.90;;;;;;2071369;28;20041;-71
2021/12/13 01:23:51;;;;;;;22.35;20.23;;;11.50;99.90;;;;;;2070748;28;20022;-72
2021/12/13 01:26:14;;;;;;;24.17;21.63;;;11.50;99.90;;;;;;2070781;28;20508;-72
2021/12/13 01:27:26;;;;;;;23.38;21.00;;;11.50;99.90;;;;;;2072172;28;20067;-72
2021/12/13 01:28:32;;;;;;;22.77;20.45;;;11.50;99.90;;;;;;2072639;28;20086;-72
2021/12/13 01:29:33;;;;;;;24.58;22.05;;;11.50;99.90;;;;;;2071701;28;20680;-72
2021/12/13 01:30:46;;;;;;;24.63;21.05;;;11.50;99.90;;;;;;2063548;28;20482;-72
2021/12/13 01:32:02;;;;;;;23.02;20.70;;;11.50;99.90;;;;;;2070936;28;20057;-72
2021/12/13 01:33:07;;;;;;;22.63;20.42;;;11.50;99.90;;;;;;2071016;28;20041;-72
2021/12/13 01:34:09;;;;;;;23.92;21.42;;;11.50;99.90;;;;;;2070270;28;20042;-72
2021/12/13 01:35:17;;;;;;;23.80;21.30;;;11.50;99.90;;;;;;2070737;28;20026;-72
2021/12/13 01:36:23;;;;;;;23.55;21.15;;;11.50;99.90;;;;;;2071217;28;20045;-72
2021/12/13 01:37:30;;;;;;;24.48;21.88;;;11.50;99.90;;;;;;2071488;28;20060;-72
2021/12/13 01:38:44;;;;;;;22.95;20.35;;;11.50;99.90;;;;;;2071618;28;20133;-72
2021/12/13 01:39:51;;;;;;;23.48;21.02;;;11.50;99.90;;;;;;2071061;28;20479;-72
2021/12/13 01:40:53;;;;;;;23.13;20.83;;;11.50;99.90;;;;;;2071392;28;20023;-72
2021/12/13 01:42:02;;;;;;;23.42;21.02;;;11.50;99.90;;;;;;2071334;28;20061;-71
2021/12/13 01:43:15;;;;;;;23.48;21.08;;;11.50;99.90;;;;;;2071037;28;20050;-72
2021/12/13 01:44:28;;;;;;;23.70;21.30;;;11.50;99.90;;;;;;2071202;28;20068;-72
2021/12/13 01:45:31;;;;;;;23.02;20.73;;;11.60;99.90;;;;;;2071356;28;20348;-72
2021/12/13 01:46:40;;;;;;;24.83;22.23;;;11.60;99.90;;;;;;2071147;28;20033;-72
2021/12/13 01:47:45;;;;;;;24.38;21.88;;;11.60;99.90;;;;;;2071593;28;20022;-72
2021/12/13 01:48:47;;;;;;;24.33;21.92;;;11.60;99.90;;;;;;2071272;28;20100;-72
2021/12/13 01:50:17;;;;;;;24.98;22.42;;;11.60;99.90;;;;;;2071176;28;20089;-72
2021/12/13 01:51:24;;;;;;;23.55;21.13;;;11.50;99.90;;;;;;2063286;28;20073;-72
2021/12/13 01:52:30;;;;;;;24.85;22.25;;;11.50;99.90;;;;;;2067536;28;20022;-72
2021/12/13 01:53:47;;;;;;;23.85;21.40;;;11.50;99.90;;;;;;2070993;28;20378;-72
2021/12/13 01:54:48;;;;;;;23.63;21.23;;;11.50;99.90;;;;;;2071171;28;20422;-72
2021/12/13 01:55:49;;;;;;;23.95;21.55;;;11.50;99.90;;;;;;2071101;28;20105;-72
2021/12/13 01:58:08;;;;;;;24.70;22.20;;;11.50;99.90;;;;;;2071416;28;20033;-72
2021/12/13 02:02:20;;;;;;;24.33;21.83;;;11.50;99.90;;;;;;2071263;28;20377;-72
2021/12/13 02:03:22;;;;;;;24.55;22.05;;;11.50;99.90;;;;;;2070327;28;20026;-72
2021/12/13 02:04:24;;;;;;;24.42;21.92;;;11.50;99.90;;;;;;2069832;28;20025;-72
2021/12/13 02:05:32;;;;;;;24.95;22.25;;;11.50;99.90;;;;;;2071522;28;20105;-72
2021/12/13 02:06:55;;;;;;;23.45;21.05;;;11.50;99.90;;;;;;2071369;28;20017;-72
2021/12/13 02:07:58;;;;;;;23.45;20.85;;;11.50;99.90;;;;;;2065002;28;20114;-72
2021/12/13 02:09:04;;;;;;;26.17;23.48;;;11.50;99.90;;;;;;2070673;28;20536;-72
2021/12/13 02:10:11;;;;;;;24.80;22.20;;;11.50;99.90;;;;;;2070531;28;20382;-72
2021/12/13 02:11:12;;;;;;;24.50;21.90;;;11.50;99.90;;;;;;2073017;28;20030;-72
2021/12/13 02:12:18;;;;;;;23.70;21.15;;;11.50;99.90;;;;;;2072710;28;20037;-72
2021/12/13 02:13:26;;;;;;;24.67;22.08;;;11.50;99.90;;;;;;2072802;28;20105;-72
2021/12/13 02:14:32;;;;;;;25.58;22.58;;;11.50;99.90;;;;;;2071905;28;20109;-72
2021/12/13 02:17:12;;;;;;;24.23;21.73;;;11.50;99.90;;;;;;2072520;28;20065;-72
2021/12/13 02:18:15;;;;;;;25.20;22.60;;;11.50;99.90;;;;;;2072845;28;20042;-72
2021/12/13 02:19:22;;;;;;;24.05;21.65;;;11.50;99.90;;;;;;2072291;28;20029;-72
2021/12/13 02:20:41;;;;;;;24.08;21.67;;;11.50;99.90;;;;;;2072910;28;20899;-72
2021/12/13 02:21:49;;;;;;;23.98;21.38;;;11.50;99.90;;;;;;2072533;28;20018;-72
2021/12/13 02:22:52;;;;;;;28.88;22.08;;;11.50;99.90;;;;;;2072909;28;20363;-72
2021/12/13 02:23:59;;;;;;;24.00;21.42;;;11.50;99.90;;;;;;2072598;28;20022;-72
2021/12/13 02:25:34;;;;;;;24.13;21.63;;;11.50;99.90;;;;;;2072674;28;20088;-72
2021/12/13 02:26:43;;;;;;;23.25;20.83;;;11.50;99.90;;;;;;2067682;28;20068;-72
2021/12/13 02:28:18;;;;;;;22.65;20.40;;;11.50;99.90;;;;;;2072541;28;20470;-72
2021/12/13 02:29:34;;;;;;;23.23;20.92;;;11.40;99.90;;;;;;2055044;28;20089;-72
2021/12/13 02:31:00;;;;;;;24.63;22.05;;;11.50;99.90;;;;;;2071494;28;20030;-72
2021/12/13 02:32:03;;;;;;;23.75;21.13;;;11.50;99.90;;;;;;2064904;28;20518;-72
2021/12/13 02:33:08;;;;;;;24.42;22.02;;;11.40;99.90;;;;;;2072732;28;20037;-72
2021/12/13 02:34:12;;;;;;;24.33;21.60;;;11.40;99.90;;;;;;2071718;28;20489;-72
2021/12/13 02:35:15;;;;;;;24.33;21.90;;;11.50;99.90;;;;;;2064528;28;20418;-71
2021/12/13 02:36:21;;;;;;;24.58;21.35;;;11.50;99.90;;;;;;2068315;28;20077;-72
2021/12/13 02:37:25;;;;;;;24.52;21.90;;;11.50;99.90;;;;;;2079092;28;20044;-72
2021/12/13 02:38:26;;;;;;;22.92;20.70;;;11.50;99.90;;;;;;2071752;28;20018;-72
2021/12/13 02:39:35;;;;;;;23.88;21.40;;;11.50;99.90;;;;;;2077353;28;20083;-72
2021/12/13 02:40:36;;;;;;;24.30;21.75;;;11.50;99.90;;;;;;2072555;28;20521;-72
2021/12/13 02:41:40;;;;;;;24.10;21.50;;;11.50;99.90;;;;;;2072370;28;20026;-72
2021/12/13 02:42:41;;;;;;;24.40;20.98;;;11.50;99.90;;;;;;2072409;28;20084;-72
2021/12/13 02:43:47;;;;;;;23.92;21.48;;;11.50;99.90;;;;;;2072445;28;20046;-72
2021/12/13 02:44:52;;;;;;;23.67;21.27;;;11.50;99.90;;;;;;2072004;28;20398;-72
2021/12/13 02:45:56;;;;;;;23.70;20.58;;;11.50;99.90;;;;;;2072775;28;20034;-72
2021/12/13 02:47:03;;;;;;;24.25;19.75;;;11.50;99.90;;;;;;2072410;28;20466;-72
2021/12/13 02:48:12;;;;;;;23.27;20.90;;;11.50;99.90;;;;;;2071930;28;20041;-72
2021/12/13 02:49:17;;;;;;;24.88;19.90;;;11.50;99.90;;;;;;2072279;28;20026;-72
2021/12/13 02:50:52;;;;;;;21.75;19.52;;;11.50;99.90;;;;;;2072588;28;20068;-73
2021/12/13 02:51:59;;;;;;;22.05;17.95;;;11.50;99.90;;;;;;2064444;28;20030;-72
2021/12/13 02:53:00;;;;;;;18.67;16.88;;;11.50;99.90;;;;;;2072106;28;20430;-72
2021/12/13 02:54:29;;;;;;;19.20;17.27;;;11.50;99.90;;;;;;2071354;28;20025;-72
2021/12/13 02:55:31;;;;;;;18.13;16.17;;;11.50;99.90;;;;;;2069289;28;20066;-72
2021/12/13 02:56:39;;;;;;;18.92;16.92;;;11.40;99.90;;;;;;2072408;28;20026;-72
2021/12/13 02:57:44;;;;;;;17.42;15.65;;;11.40;99.90;;;;;;2072266;28;20014;-72
2021/12/13 02:58:47;;;;;;;19.27;15.95;;;11.40;99.90;;;;;;2071871;28;20112;-73
2021/12/13 02:59:55;;;;;;;17.50;15.63;;;11.40;99.90;;;;;;2071785;28;20079;-72
2021/12/13 03:01:09;;;;;;;17.73;15.82;;;11.40;99.90;;;;;;2072537;28;20021;-72
2021/12/13 03:02:12;;;;;;;20.55;16.15;;;11.40;99.90;;;;;;2073711;28;20018;-72
2021/12/13 03:03:15;;;;;;;18.65;16.35;;;11.40;99.90;;;;;;2073729;28;20026;-72
2021/12/13 03:04:21;;;;;;;19.55;17.10;;;11.40;99.90;;;;;;2072755;28;20038;-72
2021/12/13 03:05:36;;;;;;;17.50;15.70;;;11.40;99.90;;;;;;2073803;28;20037;-72
2021/12/13 03:06:51;;;;;;;20.00;16.15;;;11.40;99.90;;;;;;2073210;28;20034;-72
2021/12/13 03:07:56;;;;;;;16.58;14.82;;;11.50;99.90;;;;;;2073253;28;20041;-72
2021/12/13 03:09:08;;;;;;;17.42;15.63;;;11.40;99.90;;;;;;2073334;28;20033;-73
2021/12/13 03:10:18;;;;;;;18.05;16.13;;;11.40;99.90;;;;;;2070575;28;20077;-72
2021/12/13 03:11:27;;;;;;;16.63;14.88;;;11.40;99.90;;;;;;2073752;28;20054;-72
2021/12/13 03:12:28;;;;;;;16.33;14.40;;;11.40;99.90;;;;;;2072804;28;20033;-72
2021/12/13 03:13:31;;;;;;;16.45;14.77;;;11.40;99.90;;;;;;2072956;28;20030;-72
2021/12/13 03:14:40;;;;;;;15.82;14.32;;;11.50;99.90;;;;;;2072824;28;20332;-72
2021/12/13 03:15:45;;;;;;;20.55;15.40;;;11.50;99.90;;;;;;2073793;28;20088;-72
2021/12/13 03:17:03;;;;;;;16.10;14.55;;;11.50;99.90;;;;;;2072657;28;20030;-72
2021/12/13 03:18:17;;;;;;;16.73;15.02;;;11.50;99.90;;;;;;2072650;28;20017;-72
2021/12/13 03:19:40;;;;;;;18.77;15.90;;;11.50;99.90;;;;;;2073753;28;20022;-72
2021/12/13 03:21:03;;;;;;;15.82;14.23;;;11.40;99.90;;;;;;2073550;28;20053;-72
2021/12/13 03:22:25;;;;;;;16.50;14.45;;;11.50;99.90;;;;;;2073844;28;20517;-72
2021/12/13 03:23:48;;;;;;;20.75;16.05;;;11.40;99.90;;;;;;2073834;28;20521;-72
2021/12/13 03:25:21;;;;;;;16.88;15.18;;;11.40;99.90;;;;;;2067633;28;20044;-72
2021/12/13 03:26:53;;;;;;;16.70;14.93;;;11.40;99.90;;;;;;2073332;28;20026;-72
2021/12/13 03:28:31;;;;;;;16.02;14.43;;;11.40;99.90;;;;;;2078421;28;20021;-72
2021/12/13 03:30:08;;;;;;;16.33;14.65;;;11.40;99.90;;;;;;2067082;28;20467;-72
2021/12/13 03:31:13;;;;;;;18.40;14.88;;;11.40;99.90;;;;;;2072633;28;20046;-72
2021/12/13 03:32:16;;;;;;;18.83;15.27;;;11.40;99.90;;;;;;2073153;28;20033;-72
2021/12/13 03:33:24;;;;;;;16.75;15.00;;;11.40;99.90;;;;;;2073293;28;20030;-72
2021/12/13 03:34:30;;;;;;;17.75;14.45;;;11.40;99.90;;;;;;2072708;28;20022;-72
2021/12/13 03:35:51;;;;;;;16.73;14.68;;;11.40;99.90;;;;;;2073114;28;20439;-72
2021/12/13 03:37:00;;;;;;;17.83;13.70;;;11.40;99.90;;;;;;2064806;28;20135;-72
2021/12/13 03:38:06;;;;;;;16.60;14.90;;;11.40;99.90;;;;;;2079938;28;20013;-72
2021/12/13 03:39:10;;;;;;;15.20;13.70;;;11.40;99.90;;;;;;2073735;28;20160;-72
2021/12/13 03:40:17;;;;;;;16.33;13.95;;;11.40;99.90;;;;;;2072829;28;20105;-72
2021/12/13 03:41:22;;;;;;;15.13;13.52;;;11.40;99.90;;;;;;2073552;28;20030;-72
2021/12/13 03:42:27;;;;;;;15.13;13.57;;;11.40;99.90;;;;;;2080428;28;20541;-72
2021/12/13 03:43:33;;;;;;;15.05;13.55;;;11.40;99.90;;;;;;2072538;28;20378;-72
2021/12/13 03:44:40;;;;;;;14.32;12.75;;;11.40;99.90;;;;;;2072219;28;20330;-72
2021/12/13 03:45:44;;;;;;;15.07;13.50;;;11.40;99.90;;;;;;2073682;28;20021;-72
2021/12/13 03:46:47;;;;;;;14.07;12.68;;;11.40;99.90;;;;;;2073470;28;20022;-72
2021/12/13 03:47:52;;;;;;;14.93;12.82;;;11.40;99.90;;;;;;2072542;28;20076;-72
2021/12/13 03:48:55;;;;;;;14.18;12.88;;;11.40;99.90;;;;;;2072602;28;20014;-72
2021/12/13 03:49:59;;;;;;;14.35;12.55;;;11.40;99.90;;;;;;2073195;28;20497;-72
2021/12/13 03:51:07;;;;;;;15.13;12.35;;;11.40;99.90;;;;;;2073315;28;20057;-72
2021/12/13 03:52:13;;;;;;;14.30;12.13;;;11.40;99.90;;;;;;2072559;28;20057;-72
2021/12/13 03:53:18;;;;;;;14.15;12.30;;;11.40;99.90;;;;;;2072670;28;20037;-72
2021/12/13 03:54:19;;;;;;;17.23;11.95;;;11.40;99.90;;;;;;2075197;28;20032;-72
2021/12/13 03:55:22;;;;;;;12.88;11.57;;;11.50;99.90;;;;;;2078363;28;20021;-72
2021/12/13 03:56:31;;;;;;;12.68;11.38;;;11.50;99.90;;;;;;2073116;28;20084;-72
2021/12/13 03:57:32;;;;;;;13.18;11.07;;;11.40;99.90;;;;;;2073471;28;20018;-72
2021/12/13 03:58:37;;;;;;;13.50;11.43;;;11.40;99.90;;;;;;2072000;28;20490;-72
2021/12/13 03:59:40;;;;;;;13.82;11.70;;;11.40;99.90;;;;;;2072761;28;20037;-72
2021/12/13 04:00:50;;;;;;;15.05;11.55;;;11.40;99.90;;;;;;2073017;28;20064;-72
2021/12/13 04:01:59;;;;;;;11.30;10.20;;;11.50;99.90;;;;;;2072361;28;20033;-72
2021/12/13 04:03:03;;;;;;;14.25;10.77;;;11.50;99.90;;;;;;2072390;28;20099;-72
2021/12/13 04:04:07;;;;;;;12.88;10.98;;;11.50;99.90;;;;;;2071860;28;20062;-72
2021/12/13 04:05:15;;;;;;;12.07;10.88;;;11.50;99.90;;;;;;2072561;28;20622;-72
2021/12/13 04:06:18;;;;;;;12.35;10.80;;;11.50;99.90;;;;;;2071593;28;20045;-72
2021/12/13 04:07:32;;;;;;;11.27;10.02;;;11.50;99.90;;;;;;2071831;28;20976;-72
2021/12/13 04:08:34;;;;;;;12.02;10.82;;;11.50;99.90;;;;;;2071867;28;20040;-72
2021/12/13 04:09:35;;;;;;;12.45;11.13;;;11.40;99.90;;;;;;2070094;28;20490;-72
2021/12/13 04:10:43;;;;;;;13.77;11.43;;;11.40;99.90;;;;;;2069255;28;20549;-72
2021/12/13 04:11:45;;;;;;;11.95;10.73;;;11.50;99.90;;;;;;2072376;28;20102;-72
2021/12/13 04:12:51;;;;;;;12.23;10.80;;;11.40;99.90;;;;;;2071828;28;20030;-72
2021/12/13 04:14:00;;;;;;;13.38;12.02;;;11.40;99.90;;;;;;2070760;28;20371;-71
2021/12/13 04:15:12;;;;;;;12.30;11.10;;;11.50;99.90;;;;;;2070699;28;20060;-73
2021/12/13 04:16:48;;;;;;;14.25;11.35;;;11.40;99.90;;;;;;2072330;28;20462;-72
2021/12/13 04:18:13;;;;;;;12.70;11.40;;;11.40;99.90;;;;;;2072109;28;20478;-72
2021/12/13 04:19:22;;;;;;;12.95;10.57;;;11.30;99.90;;;;;;2072024;28;20021;-72
2021/12/13 04:20:31;;;;;;;11.60;10.40;;;11.30;99.90;;;;;;2071910;28;20045;-72
2021/12/13 04:21:38;;;;;;;11.50;10.43;;;11.30;99.90;;;;;;2071690;28;20098;-72
2021/12/13 04:22:45;;;;;;;12.40;10.85;;;11.30;99.90;;;;;;2071034;28;20022;-72
2021/12/13 04:23:56;;;;;;;12.68;10.63;;;11.30;99.90;;;;;;2071191;28;20066;-72
2021/12/13 04:25:03;;;;;;;11.57;9.98;;;11.30;99.90;;;;;;2071369;28;20033;-72
2021/12/13 04:26:08;;;;;;;12.13;10.82;;;11.30;99.90;;;;;;2071171;28;20034;-72
2021/12/13 04:27:34;;;;;;;11.25;10.00;;;11.30;99.90;;;;;;2070894;28;20431;-72
2021/12/13 04:28:39;;;;;;;11.23;9.35;;;11.30;99.90;;;;;;2071349;28;20034;-72
2021/12/13 04:29:41;;;;;;;11.20;10.05;;;11.30;99.90;;;;;;2070553;28;20395;-72
2021/12/13 04:30:49;;;;;;;11.05;9.73;;;11.30;99.90;;;;;;2071832;28;20493;-72
2021/12/13 04:31:51;;;;;;;11.05;9.02;;;11.40;99.90;;;;;;2071387;28;20033;-72
2021/12/13 04:33:03;;;;;;;11.40;10.20;;;11.30;99.90;;;;;;2071842;28;20041;-72
2021/12/13 04:34:05;;;;;;;12.07;10.40;;;11.30;99.90;;;;;;2071853;28;20084;-72
2021/12/13 04:35:09;;;;;;;10.88;9.07;;;11.30;99.90;;;;;;2070558;28;20522;-72
2021/12/13 04:36:18;;;;;;;10.73;9.45;;;11.30;99.90;;;;;;2071183;28;20402;-72
2021/12/13 04:37:23;;;;;;;10.57;9.35;;;11.30;99.90;;;;;;2071061;28;20081;-72
2021/12/13 04:38:35;;;;;;;9.43;8.52;;;11.30;99.90;;;;;;2071415;28;20022;-72
2021/12/13 04:39:36;;;;;;;10.80;8.65;;;11.30;99.90;;;;;;2071657;28;20536;-71
2021/12/13 04:40:40;;;;;;;10.35;9.25;;;11.30;99.90;;;;;;2071811;28;20091;-72
2021/12/13 04:41:48;;;;;;;10.20;9.23;;;11.30;99.90;;;;;;2071486;28;20758;-72
2021/12/13 04:42:55;;;;;;;8.82;7.97;;;11.30;99.90;;;;;;2071749;28;20034;-71
2021/12/13 04:44:05;;;;;;;11.20;9.13;;;11.30;99.90;;;;;;2071548;28;20026;-72
2021/12/13 04:45:19;;;;;;;12.65;9.40;;;11.30;99.90;;;;;;2070572;28;20040;-72
2021/12/13 04:46:21;;;;;;;10.40;8.38;;;11.30;99.90;;;;;;2070996;28;20034;-71
2021/12/13 04:47:48;;;;;;;11.30;8.90;;;11.30;99.90;;;;;;2071684;28;20029;-71
2021/12/13 04:48:54;;;;;;;10.25;9.23;;;11.30;99.90;;;;;;2066267;28;20096;-72
2021/12/13 04:50:13;;;;;;;10.07;9.02;;;11.30;99.90;;;;;;2070998;28;20136;-72
2021/12/13 04:51:17;;;;;;;10.68;8.50;;;11.30;99.90;;;;;;2071606;28;20061;-72
2021/12/13 04:52:20;;;;;;;9.85;8.85;;;11.30;99.90;;;;;;2071519;28;20026;-72
2021/12/13 04:53:25;;;;;;;10.27;9.20;;;11.30;99.90;;;;;;2071548;28;20036;-72
2021/12/13 04:54:29;;;;;;;10.20;9.20;;;11.30;99.90;;;;;;2069953;28;20029;-72
2021/12/13 04:55:35;;;;;;;10.07;9.05;;;11.30;99.90;;;;;;2071599;28;20060;-72
2021/12/13 04:56:36;;;;;;;10.60;9.48;;;11.30;99.90;;;;;;2071395;28;20113;-72
2021/12/13 04:57:38;;;;;;;9.52;8.38;;;11.30;99.90;;;;;;2071595;28;20014;-72
2021/12/13 04:58:40;;;;;;;10.05;9.05;;;11.30;99.90;;;;;;2071466;28;20033;-72
2021/12/13 04:59:46;;;;;;;11.88;10.63;;;11.30;99.90;;;;;;2071617;28;20029;-71
2021/12/13 05:00:53;;;;;;;12.07;10.20;;;11.30;99.90;;;;;;2071138;28;20108;-72
2021/12/13 05:01:58;;;;;;;11.23;10.13;;;11.40;99.90;;;;;;2071194;28;20018;-72
2021/12/13 05:03:02;;;;;;;11.52;10.32;;;11.30;99.90;;;;;;2070754;28;20025;-72
2021/12/13 05:04:05;;;;;;;11.18;10.07;;;11.30;99.90;;;;;;2071694;28;20022;-72
2021/12/13 05:05:06;;;;;;;11.68;10.45;;;11.30;99.90;;;;;;2070785;28;20084;-72
2021/12/13 05:06:14;;;;;;;11.85;10.52;;;11.30;99.90;;;;;;2071574;28;20033;-71
2021/12/13 05:07:17;;;;;;;11.35;9.98;;;11.30;99.90;;;;;;2071491;28;20026;-71
2021/12/13 05:08:19;;;;;;;12.23;10.93;;;11.40;99.90;;;;;;2071396;28;20510;-72
2021/12/13 05:09:22;;;;;;;11.77;10.57;;;11.30;99.90;;;;;;2070960;28;20128;-72
2021/12/13 05:10:25;;;;;;;12.23;10.63;;;11.30;99.90;;;;;;2068521;28;20097;-72
2021/12/13 05:11:32;;;;;;;12.10;10.80;;;11.30;99.90;;;;;;2071205;28;20022;-72
2021/12/13 05:12:32;;;;;;;12.55;10.63;;;11.30;99.90;;;;;;2066777;28;20014;-72
2021/12/13 05:13:48;;;;;;;12.27;10.98;;;11.30;99.90;;;;;;2071021;28;20033;-72
2021/12/13 05:14:56;;;;;;;11.38;10.10;;;11.40;99.90;;;;;;2071018;28;20101;-72
2021/12/13 05:16:09;;;;;;;14.10;10.95;;;11.30;99.90;;;;;;2071462;28;20474;-72
2021/12/13 05:17:44;;;;;;;12.25;11.05;;;11.40;99.90;;;;;;2071370;28;20057;-72
2021/12/13 05:18:48;;;;;;;10.93;9.93;;;11.30;99.90;;;;;;2062243;28;20030;-72
2021/12/13 05:19:53;;;;;;;12.13;10.15;;;11.30;99.90;;;;;;2065403;28;20045;-72
2021/12/13 05:21:08;;;;;;;15.30;10.88;;;11.30;99.90;;;;;;2071349;28;20088;-72
2021/12/13 05:22:11;;;;;;;12.02;10.52;;;11.30;99.90;;;;;;2071511;28;20033;-72
2021/12/13 05:23:19;;;;;;;13.93;10.85;;;11.20;99.90;;;;;;2071205;28;20025;-72
2021/12/13 05:24:23;;;;;;;12.13;10.90;;;11.30;99.90;;;;;;2070033;28;20029;-72
2021/12/13 05:25:43;;;;;;;12.25;10.90;;;11.30;99.90;;;;;;2066651;28;20034;-72
2021/12/13 05:26:49;;;;;;;12.83;11.37;;;11.30;99.90;;;;;;2071322;28;20018;-72
2021/12/13 05:27:59;;;;;;;12.38;11.05;;;11.30;99.90;;;;;;2067609;28;20463;-72
2021/12/13 05:29:01;;;;;;;12.52;11.18;;;11.20;99.90;;;;;;2071805;28;20135;-72
2021/12/13 05:30:08;;;;;;;12.65;10.55;;;11.30;99.90;;;;;;2071117;28;20057;-72
2021/12/13 05:31:15;;;;;;;14.38;11.27;;;11.30;99.90;;;;;;2065314;28;20157;-72
2021/12/13 05:32:33;;;;;;;13.13;11.55;;;11.30;99.90;;;;;;2071544;28;20048;-72
2021/12/13 05:33:38;;;;;;;12.50;11.20;;;11.30;99.90;;;;;;2071133;28;20032;-72
2021/12/13 05:34:46;;;;;;;13.02;11.73;;;11.20;99.90;;;;;;2071021;28;20020;-72
2021/12/13 05:35:49;;;;;;;16.20;10.95;;;11.20;99.90;;;;;;2071615;28;20592;-72
2021/12/13 05:36:59;;;;;;;12.02;10.82;;;11.30;99.90;;;;;;2071605;28;20029;-72
2021/12/13 05:38:04;;;;;;;12.80;10.07;;;11.30;99.90;;;;;;2071075;28;20114;-72
2021/12/13 05:39:08;;;;;;;13.20;11.38;;;11.30;99.90;;;;;;2070188;28;20470;-72
2021/12/13 05:40:13;;;;;;;12.80;11.50;;;11.30;99.90;;;;;;2070165;28;20079;-72
2021/12/13 05:41:24;;;;;;;11.27;10.07;;;11.30;99.90;;;;;;2069847;28;20105;-72
2021/12/13 05:42:54;;;;;;;13.65;11.30;;;11.30;99.90;;;;;;2067419;28;20065;-76
2021/12/13 05:44:01;;;;;;;12.27;9.95;;;11.30;99.90;;;;;;2070574;28;20039;-71
2021/12/13 05:45:02;;;;;;;11.50;10.40;;;11.30;99.90;;;;;;2070971;28;20034;-72
2021/12/13 05:46:11;;;;;;;11.82;10.40;;;11.30;99.90;;;;;;2068653;28;20542;-72
2021/12/13 05:47:23;;;;;;;13.15;10.30;;;11.30;99.90;;;;;;2071705;28;20096;-72
2021/12/13 05:48:42;;;;;;;14.38;9.35;;;11.30;99.90;;;;;;2066820;28;20018;-72
2021/12/13 05:49:44;;;;;;;10.20;9.20;;;11.30;99.90;;;;;;2069283;28;20030;-72
2021/12/13 05:50:58;;;;;;;14.93;9.60;;;11.30;99.90;;;;;;2070286;28;20045;-72
2021/12/13 05:52:14;;;;;;;11.02;9.88;;;11.30;99.90;;;;;;2071174;28;20022;-72
2021/12/13 05:53:28;;;;;;;12.00;8.95;;;11.30;99.90;;;;;;2072775;28;20025;-71
2021/12/13 05:54:32;;;;;;;10.60;9.60;;;11.20;99.90;;;;;;2065689;28;20062;-72
2021/12/13 05:55:45;;;;;;;10.77;9.13;;;11.20;99.90;;;;;;2068506;28;20062;-71
2021/12/13 05:56:50;;;;;;;10.10;8.68;;;11.20;99.90;;;;;;2069077;28;20030;-72
2021/12/13 05:57:51;;;;;;;10.23;9.20;;;11.20;99.90;;;;;;2070843;28;20026;-72
2021/12/13 05:59:14;;;;;;;11.43;9.88;;;11.20;99.90;;;;;;2077062;28;20108;-72
2021/12/13 06:00:32;;;;;;;12.98;9.85;;;11.20;99.90;;;;;;2065810;28;20440;-72
2021/12/13 06:02:07;;;;;;;11.13;10.02;;;11.20;99.90;;;;;;2075575;28;20337;-72
2021/12/13 06:03:17;;;;;;;10.68;8.82;;;11.10;99.90;;;;;;2070434;28;20109;-72
2021/12/13 06:04:47;;;;;;;9.70;8.70;;;11.20;99.90;;;;;;2066129;28;20157;-72